North Island Naval Air Station-Halsey Field
KNZY : rendu visible

Aérodrome :











RETROUVEZ-NOUS SUR...

 
LOGIN :

S'inscrire | Disclaimer

   EN    FR    IT 

 









Légende :    VFR   VFR Marginal   IFR   IFR Intensif   IFR Très Intensif
Visi : 
Plafond : 
>= 8 km
>= 3000ft
5 à 8 km
1000 à 3000 ft
1500m à 5 km
500 à 1000 ft
800 à 1500m
200 à 500 ft
< 800m
< 200 ft
Symboles :   Orages  Brouillard  Fortes neiges  Fortes précipitations  Vent > 20 kt






- Altitude de l'aérodrome : 26 ft


KNZY - North Island Naval Air Station-Halsey Field

DERNIER METAR :
  • 172352Z 31009KT 10SM FEW020 SCT045 BKN200 16/08 A3017 RMK AO2 SLP217 T01560083 10161 20139 56010 $

METARs EXPIRÉS :
  • 172252Z 29008KT 10SM FEW020 SCT043 BKN200 16/08 A3018 RMK AO2 SLP219 T01560083 $
  • 172152Z 28008KT 10SM FEW020 FEW030 SCT040 BKN200 16/08 A3019 RMK AO2 SLP221 T01610083 $

TAF TAF KNZY
Valide du 17 à 23h jusqu'au 18 à 23h UTC


1723/1823 29009KT 9999 FEW020 SCT040 BKN200 QNH3013INS
FM180200 VRB06KT 9999 FEW020 SCT050 BKN200 QNH3014INS
FM182000 31011KT 9999 FEW030 SCT200 QNH3007INS T10/1813Z T18/1821Z FS30022



MET'MAP, la Météo Aéronautique d'un coup d'oeil ! - Copyright ORBIFLY Décembre 2007 - Disclaimer

ORBIFLY MET'MAP TEAM :

Programmation & Développement : Alexandra Zaïnal
Sur une idée originale de : Baudouin d'Aumeries
Assistance à la programmation : Marc-Olivier Méhu
Soutien technique & logistique : Manuel Goepfert

Contact : metmap@orbifly.com




SOURCES & CREDITS :

   NOAA       Earth
Advisory